Main page
METAR-TAF:

METAR-TAF

Airports :

Sheremetyevo International Airport

Moscow-Sheremetyevo, Russia

latitude: 55-58N, longitude: 037-25E, elevation: 190 m

Current weather observation

The report was made 21 minutes ago, at 04:30 UTC
Wind 8 kt from the West/Northwest
Temperature -2°C
Humidity 93%
Pressure 1022 hPa
Visibility 10 km or more
Overcast at a height of 900 ft

METAR: UUEE 210430Z 30004MPS 9999 OVC009 M02/M03 Q1022 R24L/410151 R24C/410140 NOSIG

Time: 07:51 (04:51 UTC)

Forecast

The report was made 2 hours and 52 minutes ago, at 01:59 UTC
Forecast valid from 21 at 03 UTC to 22 at 03 UTC
Wind 10 kt from the West/Northwest
Visibility: 9000 m
Broken clouds at a height of 1100 ft
Temporary
from 21 at 06 UTC to 21 at 18 UTC
Wind 16 kt from the North/Northwest with gusts up to 25 kt
Visibility: 3100 m
Scattered clouds at a height of 1500 ft, Cumulonimbus.
light snow showers

TAF: UUEE 210159Z 2103/2203 30005MPS 9000 BKN011 TXM01/2112Z TNM04/2121Z TEMPO 2106/2118 34008G13MPS 3100 -SHSN SCT015CB

Weather observations and forecasts of more than 4000 airports (METAR and TAF reports).

The available stations are represented by yellow and red dots on the map.

Hover mouse over dot to see the name of the station.

Then click to see weather observations and forecasts.

To change the map : click on the green buttons with a black cross to zoom in, on the green button with a dash to zoom out, or on the green arrows for adjacent maps.


METAR-TAF: